Impacts METAR Board
IDs:

KAXN - Alexandria/Chandler, MN, US

Updated at: 1600 UTC 14 Aug 2018
Potential Impact None Slight Moderate High
Time 14/04Z 14/05Z 14/06Z 14/07Z 14/08Z 14/09Z 14/10Z 14/11Z 14/12Z 14/13Z 14/14Z 14/15Z 14/16Z
Temp80 78 77 76 76 74 74 72 70 67 68 67 67
Dewpt70 69 69 69 69 69 69 64 63 63 64 65 64
Altim29.96 29.96 29.96 29.96 29.95 29.94 29.96 29.95 29.96 29.99 29.98 30.00 29.98
VIS10 10 10 10 10 10 8 10 10 1.5 10 10 10
CIG-- -- -- -- 90 -- 65 11 14 35 60 90 100
CoverCLRCLRCLRFEWBKNCLRBKNOVCBKNOVCOVCOVCOVC
FltCatVFRVFRVFRVFRVFRVFRVFRMVFRMVFRIFRVFRVFRVFR
WX------------------+TSRA BR--VCTS--
WDir210220220210220200340302030606050
WSpd7 6 7 7 6 5 8 10 10 13 12 9 7
WGst-- -- -- -- -- -- -- -- -- -- -- -- --
Raw hourly METARs
KAXN 140353Z AUTO 21007KT 10SM CLR 27/21 A2996 RMK AO2 SLP134 T02670211
KAXN 140453Z AUTO 22006KT 10SM CLR 26/21 A2996 RMK AO2 SLP137 T02560206
KAXN 140553Z AUTO 22007KT 10SM CLR 25/21 A2996 RMK AO2 SLP134 T02500206 10317 20250 403440222 50003
KAXN 140653Z AUTO 21007KT 10SM FEW100 24/21 A2996 RMK AO2 SLP134 T02440206
KAXN 140753Z AUTO 22006KT 10SM BKN090 BKN110 24/21 A2995 RMK AO2 SLP130 T02440206
KAXN 140853Z AUTO 20005KT 10SM CLR 23/21 A2994 RMK AO2 SLP128 T02330206 58005
KAXN 141005Z AUTO 34008KT 8SM SCT008 BKN065 BKN080 23/21 A2996 RMK AO2 T02330206
KAXN 141053Z AUTO 03010KT 10SM OVC011 22/18 A2995 RMK AO2 SLP132 T02220178
KAXN 141205Z AUTO 02010KT 10SM BKN014 BKN070 21/17 A2996 RMK AO2 T02110172
KAXN 141304Z AUTO 03013KT 1 1/2SM +TSRA BR SCT015 BKN035 OVC080 19/17 A2999 RMK AO2 LTG DSNT NW-E P0022 T01940172
KAXN 141401Z AUTO 06012KT 10SM OVC060 20/18 A2998 RMK AO2 WSHFT 1347 LTG DSNT ALQDS RAE1356 TSE00 PRESFR P0000 T02000178
KAXN 141453Z AUTO 06009KT 10SM VCTS FEW029 SCT075 OVC090 19/18 A3000 RMK AO2 WSHFT 1414 LTG DSNT W AND NW RAE1356B18E42 TSE00 SLP153 P0025 60068 T01940183 55006
KAXN 141553Z AUTO 05007KT 10SM OVC100 19/18 A2998 RMK AO2 LTG DSNT N AND NW RAB17E45 SLP145 P0007 T01940178



Page loaded:  16:11 UTC  |   09:11 AM Pacific  |   10:11 AM Mountain  |   11:11 AM Central  |   12:11 PM Eastern

 

ADVISORIES

FORECASTS

FORECASTS

OBSERVATIONS

USER TOOLS

ABOUT US